createdAt,value
2023-03-24T00:00:21.985Z,11.10
2023-03-24T00:05:30.987Z,11.30
2023-03-24T00:10:38.479Z,11.20
2023-03-24T00:15:45.737Z,11.10
2023-03-24T00:20:56.171Z,11.20
2023-03-24T00:26:09.389Z,11.30
2023-03-24T00:31:17.853Z,11.20
2023-03-24T00:36:29.544Z,11.30
2023-03-24T00:41:36.955Z,11.40
2023-03-24T00:46:45.595Z,11.40
2023-03-24T00:51:53.217Z,11.30
2023-03-24T00:57:01.618Z,11.30
2023-03-24T01:02:10.125Z,11.20
2023-03-24T01:07:18.507Z,11.10
2023-03-24T01:12:31.155Z,11.10
2023-03-24T01:17:38.362Z,10.90
2023-03-24T01:22:46.842Z,11.00
2023-03-24T01:27:54.938Z,10.80
2023-03-24T01:33:02.173Z,10.70
2023-03-24T01:38:15.119Z,10.80
2023-03-24T01:43:27.798Z,10.80
2023-03-24T01:48:53.982Z,10.80
2023-03-24T01:54:19.228Z,10.90
2023-03-24T01:59:30.805Z,10.80
2023-03-24T02:04:48.760Z,10.70
2023-03-24T02:09:55.883Z,10.70
2023-03-24T02:15:05.564Z,10.60
2023-03-24T02:20:23.047Z,10.80
2023-03-24T02:26:08.784Z,11.00
2023-03-24T02:31:38.054Z,11.00
2023-03-24T02:37:06.944Z,11.00
2023-03-24T02:42:38.803Z,11.00
2023-03-24T02:48:23.090Z,10.80
2023-03-24T02:53:43.618Z,10.70
2023-03-24T02:58:54.381Z,10.80
2023-03-24T03:04:08.473Z,10.70
2023-03-24T03:09:21.351Z,10.90
2023-03-24T03:14:40.534Z,10.70
2023-03-24T03:19:55.780Z,11.00
2023-03-24T03:25:04.773Z,10.60
2023-03-24T03:30:21.381Z,10.50
2023-03-24T03:35:37.494Z,10.60
2023-03-24T03:41:02.400Z,10.70
2023-03-24T03:46:10.709Z,10.80
2023-03-24T03:51:18.744Z,10.60
2023-03-24T03:56:30.023Z,10.50
2023-03-24T04:01:40.332Z,10.60
2023-03-24T04:06:53.218Z,10.70
2023-03-24T04:12:13.519Z,10.80
2023-03-24T04:17:36.605Z,10.90
2023-03-24T04:23:08.611Z,10.70
2023-03-24T04:28:27.450Z,10.80
2023-03-24T04:33:49.184Z,10.80
2023-03-24T04:38:58.293Z,10.80
2023-03-24T04:44:06.294Z,10.70
2023-03-24T04:49:13.153Z,10.70
2023-03-24T04:54:21.684Z,10.70
2023-03-24T04:59:29.245Z,10.80
2023-03-24T05:04:38.957Z,10.70
2023-03-24T05:09:46.290Z,10.70
2023-03-24T05:14:53.311Z,10.80
2023-03-24T05:20:00.271Z,10.70
2023-03-24T05:25:08.561Z,10.60
2023-03-24T05:30:16.954Z,10.60
2023-03-24T05:35:25.295Z,10.70
2023-03-24T05:40:32.265Z,10.90
2023-03-24T05:45:40.137Z,10.90
2023-03-24T05:50:47.412Z,11.00
2023-03-24T05:55:54.607Z,11.30
2023-03-24T06:01:01.495Z,11.40
2023-03-24T06:06:12.608Z,11.70
2023-03-24T06:11:19.793Z,11.90
2023-03-24T06:16:30.292Z,11.90
2023-03-24T06:21:37.385Z,12.00
2023-03-24T06:26:44.960Z,12.10
2023-03-24T06:31:51.886Z,12.10
2023-03-24T06:36:58.639Z,12.20
2023-03-24T06:42:05.985Z,12.50
2023-03-24T06:47:14.048Z,12.50
2023-03-24T06:52:20.942Z,12.60
2023-03-24T06:57:29.094Z,12.60
2023-03-24T07:02:36.014Z,12.90
2023-03-24T07:12:51.483Z,13.30
2023-03-24T07:17:58.338Z,13.40
2023-03-24T07:23:05.197Z,13.50
2023-03-24T07:28:11.911Z,13.40
2023-03-24T07:33:18.645Z,13.60
2023-03-24T07:38:26.278Z,13.70
2023-03-24T07:43:32.990Z,14.00
2023-03-24T07:48:41.425Z,14.10
2023-03-24T07:53:49.605Z,14.20
2023-03-24T07:58:58.941Z,14.30
2023-03-24T08:04:07.105Z,14.50
2023-03-24T08:09:15.036Z,14.80
2023-03-24T08:14:22.646Z,14.70
2023-03-24T08:19:30.456Z,14.80
2023-03-24T08:24:38.640Z,15.10
2023-03-24T08:29:46.109Z,15.20
2023-03-24T08:34:54.449Z,15.70
2023-03-24T08:40:03.492Z,16.30
2023-03-24T08:45:12.474Z,16.20
2023-03-24T08:50:21.568Z,16.80
2023-03-24T08:55:28.555Z,17.30
2023-03-24T09:00:35.296Z,17.30
2023-03-24T09:05:44.824Z,17.50
2023-03-24T09:10:51.675Z,17.70
2023-03-24T09:16:02.641Z,17.50
2023-03-24T09:21:10.244Z,17.60
2023-03-24T09:26:17.025Z,16.90
2023-03-24T09:31:23.824Z,17.00
2023-03-24T09:36:31.221Z,17.40
2023-03-24T09:41:38.607Z,17.40
2023-03-24T09:46:49.913Z,17.40
2023-03-24T09:52:07.131Z,17.90
2023-03-24T09:57:41.248Z,18.50
2023-03-24T10:02:49.718Z,18.30
2023-03-24T10:08:35.264Z,18.80
2023-03-24T10:14:20.946Z,18.70
2023-03-24T10:19:35.208Z,18.50
2023-03-24T10:24:55.227Z,18.40
2023-03-24T10:30:27.597Z,18.70
2023-03-24T10:35:38.242Z,19.10
2023-03-24T10:40:47.136Z,18.70
2023-03-24T10:45:59.771Z,19.50
2023-03-24T10:51:06.502Z,19.40
2023-03-24T10:56:19.373Z,18.80
2023-03-24T11:01:32.132Z,19.00
2023-03-24T11:06:39.045Z,18.70
2023-03-24T11:11:46.470Z,18.50
2023-03-24T11:16:54.582Z,18.30
2023-03-24T11:22:05.712Z,18.60
2023-03-24T11:27:16.764Z,18.40
2023-03-24T11:32:30.287Z,18.40
2023-03-24T11:37:38.478Z,18.00
2023-03-24T11:42:53.995Z,18.10
2023-03-24T11:48:01.687Z,17.80
2023-03-24T11:53:27.987Z,17.70
2023-03-24T11:58:54.290Z,17.70
2023-03-24T12:04:21.908Z,17.70
2023-03-24T12:09:41.989Z,17.90
2023-03-24T12:15:25.122Z,18.10
2023-03-24T12:20:46.024Z,18.20
2023-03-24T12:26:03.438Z,18.20
2023-03-24T12:31:50.472Z,17.90
2023-03-24T12:37:07.165Z,18.20
2023-03-24T12:42:19.366Z,18.10
2023-03-24T12:48:14.012Z,18.00
2023-03-24T12:53:47.893Z,17.50
2023-03-24T12:59:02.897Z,17.60
2023-03-24T13:04:33.294Z,17.70
2023-03-24T13:10:08.326Z,17.50
2023-03-24T13:15:19.359Z,17.20
2023-03-24T13:20:35.963Z,17.30
2023-03-24T13:26:09.474Z,17.10
2023-03-24T13:31:18.268Z,17.40
2023-03-24T13:36:50.128Z,17.40
2023-03-24T13:41:59.725Z,17.60
2023-03-24T13:47:18.156Z,17.70
2023-03-24T13:52:45.275Z,17.70
2023-03-24T13:58:01.917Z,17.60
2023-03-24T14:03:20.257Z,17.60
2023-03-24T14:08:55.512Z,17.60
2023-03-24T14:14:21.271Z,17.60
2023-03-24T14:19:43.127Z,17.70
2023-03-24T14:25:00.546Z,17.40
2023-03-24T14:30:22.974Z,17.40
2023-03-24T14:35:49.123Z,17.40
2023-03-24T14:41:01.656Z,17.30
2023-03-24T14:46:24.937Z,17.00
2023-03-24T14:51:53.739Z,17.10
2023-03-24T14:57:02.121Z,17.20
2023-03-24T15:02:26.175Z,17.00
2023-03-24T15:07:32.839Z,17.00
2023-03-24T15:12:39.580Z,17.10
2023-03-24T15:17:47.357Z,17.00
2023-03-24T15:22:55.549Z,16.90
2023-03-24T15:28:02.292Z,16.80
2023-03-24T15:33:11.816Z,16.60
2023-03-24T15:38:24.968Z,16.40
2023-03-24T15:43:31.735Z,16.30
2023-03-24T15:48:40.021Z,16.20
2023-03-24T15:53:58.813Z,16.00
2023-03-24T15:59:13.679Z,16.00
2023-03-24T16:04:23.224Z,16.00
2023-03-24T16:09:38.166Z,15.90
2023-03-24T16:14:44.916Z,16.00
2023-03-24T16:19:51.640Z,16.00
2023-03-24T16:25:01.182Z,15.90
2023-03-24T16:30:25.883Z,15.80
2023-03-24T16:35:32.721Z,15.90
2023-03-24T16:40:47.026Z,16.00
2023-03-24T16:45:54.187Z,15.90
2023-03-24T16:51:01.854Z,15.80
2023-03-24T16:56:10.872Z,15.60
2023-03-24T17:01:32.094Z,15.60
2023-03-24T17:06:41.440Z,15.60
2023-03-24T17:11:58.779Z,15.60
2023-03-24T17:17:07.523Z,15.40
2023-03-24T17:22:16.779Z,15.30
2023-03-24T17:27:23.904Z,15.30
2023-03-24T17:32:33.585Z,15.00
2023-03-24T17:37:40.889Z,14.90
2023-03-24T17:42:48.828Z,14.70
2023-03-24T17:47:55.689Z,14.60
2023-03-24T17:53:03.049Z,14.50
2023-03-24T17:58:09.941Z,14.50
2023-03-24T18:03:17.153Z,14.60
2023-03-24T18:08:24.337Z,14.50
2023-03-24T18:13:31.442Z,14.50
2023-03-24T18:18:40.092Z,14.50
2023-03-24T18:23:49.445Z,14.20
2023-03-24T18:28:56.619Z,14.10
2023-03-24T18:34:04.793Z,14.00
2023-03-24T18:39:12.277Z,14.00
2023-03-24T18:44:19.364Z,13.90
2023-03-24T18:49:27.056Z,13.90
2023-03-24T18:54:34.155Z,13.90
2023-03-24T18:59:42.080Z,13.90
2023-03-24T19:04:50.003Z,13.80
2023-03-24T19:09:59.701Z,13.80
2023-03-24T19:15:08.890Z,13.80
2023-03-24T19:20:16.747Z,13.80
2023-03-24T19:25:24.933Z,13.80
2023-03-24T19:30:32.118Z,13.70
2023-03-24T19:35:39.331Z,13.80
2023-03-24T19:40:46.885Z,13.70
2023-03-24T19:45:56.453Z,13.60
2023-03-24T19:51:03.807Z,13.60
2023-03-24T19:56:11.674Z,13.50
2023-03-24T20:01:19.728Z,13.60
2023-03-24T20:06:26.997Z,13.50
2023-03-24T20:11:33.885Z,13.40
2023-03-24T20:16:41.185Z,13.40
2023-03-24T20:21:48.087Z,13.40
2023-03-24T20:26:54.876Z,13.30
2023-03-24T20:32:01.929Z,13.30
2023-03-24T20:37:09.554Z,13.20
2023-03-24T20:42:18.025Z,13.20
2023-03-24T20:47:25.120Z,13.20
2023-03-24T20:52:33.260Z,13.20
2023-03-24T20:57:40.551Z,13.20
2023-03-24T21:02:48.072Z,13.30
2023-03-24T21:07:55.865Z,13.30
2023-03-24T21:13:05.468Z,13.30
2023-03-24T21:18:12.781Z,13.30
2023-03-24T21:23:21.339Z,12.80
2023-03-24T21:28:31.577Z,12.70
2023-03-24T21:33:40.578Z,12.40
2023-03-24T21:38:49.207Z,12.30
2023-03-24T21:43:56.233Z,12.20
2023-03-24T21:49:03.092Z,11.90
2023-03-24T21:54:10.211Z,11.80
2023-03-24T21:59:17.022Z,11.60
2023-03-24T22:04:25.464Z,11.40
2023-03-24T22:09:32.497Z,11.20
2023-03-24T22:14:39.465Z,11.00
2023-03-24T22:19:46.294Z,10.70
2023-03-24T22:24:53.039Z,10.50
2023-03-24T22:30:00.704Z,10.10
2023-03-24T22:35:08.914Z,9.70
2023-03-24T22:40:15.798Z,9.80
2023-03-24T22:45:23.268Z,9.70
2023-03-24T22:50:30.839Z,9.60
2023-03-24T22:55:39.110Z,9.50
2023-03-24T23:00:50.499Z,9.40
2023-03-24T23:06:29.323Z,9.50
2023-03-24T23:11:36.470Z,9.30
2023-03-24T23:16:43.790Z,9.40
2023-03-24T23:21:50.927Z,9.30
2023-03-24T23:26:58.236Z,9.40
2023-03-24T23:32:05.341Z,9.40
2023-03-24T23:37:14.125Z,9.60
2023-03-24T23:42:20.984Z,9.20
2023-03-24T23:47:29.428Z,9.20
2023-03-24T23:52:37.891Z,9.30
2023-03-24T23:57:45.663Z,9.20
